createdAt,value
2018-12-14T00:01:32.051Z,2.24
2018-12-14T00:04:06.627Z,2.22
2018-12-14T00:06:38.878Z,2.17
2018-12-14T00:09:10.959Z,2.19
2018-12-14T00:11:45.494Z,2.18
2018-12-14T00:14:17.751Z,2.20
2018-12-14T00:16:50.323Z,2.18
2018-12-14T00:19:22.914Z,2.16
2018-12-14T00:21:54.909Z,2.10
2018-12-14T00:24:26.991Z,2.16
2018-12-14T00:26:59.587Z,2.14
2018-12-14T00:29:31.660Z,2.03
2018-12-14T00:32:05.961Z,2.05
2018-12-14T00:34:40.133Z,2.07
2018-12-14T00:37:11.960Z,2.11
2018-12-14T00:39:43.872Z,2.12
2018-12-14T00:42:16.705Z,2.17
2018-12-14T00:44:48.901Z,2.02
2018-12-14T00:47:20.581Z,2.18
2018-12-14T00:49:52.771Z,2.11
2018-12-14T00:52:25.004Z,2.09
2018-12-14T00:54:56.697Z,2.20
2018-12-14T00:57:28.588Z,2.10
2018-12-14T01:00:00.864Z,2.07
2018-12-14T01:02:32.915Z,2.14
2018-12-14T01:05:03.059Z,2.21
2018-12-14T01:10:29.623Z,2.19
2018-12-14T01:13:01.621Z,2.25
2018-12-14T01:15:33.870Z,2.14
2018-12-14T01:18:06.204Z,2.16
2018-12-14T01:20:36.406Z,2.22
2018-12-14T01:23:09.124Z,2.21
2018-12-14T01:25:40.897Z,2.20
2018-12-14T01:28:13.656Z,2.24
2018-12-14T01:30:45.383Z,2.13
2018-12-14T01:33:17.587Z,2.21
2018-12-14T01:35:49.802Z,2.20
2018-12-14T01:38:22.109Z,2.30
2018-12-14T01:40:56.456Z,2.19
2018-12-14T01:43:28.744Z,2.24
2018-12-14T01:46:00.655Z,2.15
2018-12-14T01:48:31.007Z,2.28
2018-12-14T01:51:03.205Z,2.34
2018-12-14T01:53:35.598Z,2.27
2018-12-14T01:56:07.622Z,2.18
2018-12-14T01:58:40.017Z,2.23
2018-12-14T02:01:10.259Z,2.22
2018-12-14T02:03:42.575Z,2.19
2018-12-14T02:08:46.294Z,2.10
2018-12-14T02:11:18.084Z,2.16
2018-12-14T02:13:50.231Z,2.17
2018-12-14T02:16:27.139Z,2.10
2018-12-14T02:18:58.732Z,2.19
2018-12-14T02:21:30.718Z,2.25
2018-12-14T02:24:02.971Z,2.15
2018-12-14T02:26:33.468Z,2.15
2018-12-14T02:29:05.599Z,2.21
2018-12-14T02:31:37.824Z,2.21
2018-12-14T02:34:09.798Z,2.02
2018-12-14T02:36:42.077Z,2.06
2018-12-14T02:39:14.799Z,2.17
2018-12-14T02:41:49.246Z,2.15
2018-12-14T02:44:21.212Z,2.15
2018-12-14T02:46:53.776Z,2.00
2018-12-14T02:49:25.907Z,2.09
2018-12-14T02:51:58.603Z,2.16
2018-12-14T02:54:30.502Z,2.24
2018-12-14T02:57:02.920Z,2.21
2018-12-14T02:59:35.068Z,2.26
2018-12-14T03:02:07.433Z,2.28
2018-12-14T03:04:39.513Z,2.07
2018-12-14T03:09:43.209Z,2.13
2018-12-14T03:12:15.619Z,2.16
2018-12-14T03:14:45.663Z,2.14
2018-12-14T03:17:18.117Z,2.18
2018-12-14T03:19:50.692Z,2.22
2018-12-14T03:22:22.656Z,2.21
2018-12-14T03:24:54.989Z,2.21
2018-12-14T03:27:29.763Z,2.25
2018-12-14T03:30:00.393Z,2.06
2018-12-14T03:32:32.392Z,2.11
2018-12-14T03:35:05.181Z,2.07
2018-12-14T03:37:36.821Z,2.19
2018-12-14T03:40:09.175Z,2.08
2018-12-14T03:42:56.232Z,2.27
2018-12-14T03:45:28.873Z,2.18
2018-12-14T03:48:01.317Z,2.16
2018-12-14T03:50:32.920Z,2.16
2018-12-14T03:53:04.834Z,2.19
2018-12-14T03:55:36.643Z,2.07
2018-12-14T03:58:09.331Z,2.14
2018-12-14T04:00:42.220Z,2.12
2018-12-14T04:03:14.350Z,2.10
2018-12-14T04:05:46.626Z,2.09
2018-12-14T04:10:50.543Z,2.00
2018-12-14T04:13:22.789Z,2.20
2018-12-14T04:15:52.962Z,2.18
2018-12-14T04:18:24.984Z,2.16
2018-12-14T04:20:56.866Z,2.20
2018-12-14T04:23:29.243Z,2.18
2018-12-14T04:26:01.371Z,2.17
2018-12-14T04:28:31.775Z,2.16
2018-12-14T04:31:04.416Z,2.14
2018-12-14T04:33:41.206Z,2.07
2018-12-14T04:36:13.676Z,2.06
2018-12-14T04:38:45.864Z,2.02
2018-12-14T04:41:18.265Z,2.10
2018-12-14T04:43:50.073Z,2.25
2018-12-14T04:46:22.449Z,2.18
2018-12-14T04:48:54.726Z,2.14
2018-12-14T04:51:26.690Z,2.24
2018-12-14T04:53:59.004Z,2.18
2018-12-14T04:56:33.503Z,2.23
2018-12-14T04:59:05.985Z,2.33
2018-12-14T05:01:38.399Z,2.29
2018-12-14T05:04:10.569Z,2.07
2018-12-14T05:06:42.771Z,1.92
2018-12-14T05:09:15.433Z,2.14
2018-12-14T05:11:47.305Z,2.14
2018-12-14T05:14:20.726Z,2.17
2018-12-14T05:16:53.678Z,2.16
2018-12-14T05:19:27.053Z,2.19
2018-12-14T05:22:00.399Z,2.17
2018-12-14T05:24:31.088Z,2.17
2018-12-14T05:27:02.589Z,2.14
2018-12-14T05:29:35.050Z,2.12
2018-12-14T05:32:07.638Z,2.09
2018-12-14T05:34:40.432Z,2.08
2018-12-14T05:37:13.202Z,2.08
2018-12-14T05:39:44.809Z,2.06
2018-12-14T05:42:21.622Z,1.84
2018-12-14T05:44:57.729Z,1.93
2018-12-14T05:47:30.092Z,2.18
2018-12-14T05:50:01.972Z,2.01
2018-12-14T05:52:34.938Z,1.99
2018-12-14T05:55:08.886Z,2.21
2018-12-14T05:57:44.127Z,2.17
2018-12-14T06:00:15.030Z,2.00
2018-12-14T06:02:50.537Z,2.21
2018-12-14T06:05:23.275Z,2.20
2018-12-14T06:07:55.438Z,2.02
2018-12-14T06:13:01.694Z,1.94
2018-12-14T06:15:42.096Z,2.05
2018-12-14T06:18:14.807Z,2.11
2018-12-14T06:20:47.178Z,2.13
2018-12-14T06:23:19.929Z,2.09
2018-12-14T06:25:51.807Z,2.00
2018-12-14T06:28:22.044Z,1.97
2018-12-14T06:30:54.341Z,1.99
2018-12-14T06:33:25.079Z,1.99
2018-12-14T06:35:57.001Z,1.92
2018-12-14T06:38:29.064Z,1.95
2018-12-14T06:41:02.094Z,1.89
2018-12-14T06:43:33.902Z,1.91
2018-12-14T06:46:06.005Z,1.88
2018-12-14T06:48:38.543Z,1.81
2018-12-14T06:51:11.096Z,1.92
2018-12-14T06:53:42.886Z,1.97
2018-12-14T06:56:15.280Z,1.89
2018-12-14T06:58:50.094Z,1.95
2018-12-14T07:01:20.500Z,1.97
2018-12-14T07:03:51.141Z,1.94
2018-12-14T07:06:22.976Z,1.94
2018-12-14T07:08:55.593Z,1.90
2018-12-14T07:14:00.293Z,1.93
2018-12-14T07:16:30.660Z,1.90
2018-12-14T07:19:02.573Z,1.96
2018-12-14T07:21:34.770Z,2.00
2018-12-14T07:24:07.195Z,1.98
2018-12-14T07:26:40.352Z,1.96
2018-12-14T07:29:12.867Z,1.93
2018-12-14T07:34:39.433Z,1.93
2018-12-14T07:37:12.152Z,1.88
2018-12-14T07:39:44.323Z,1.99
2018-12-14T07:42:16.755Z,1.91
2018-12-14T07:44:49.053Z,1.84
2018-12-14T07:47:22.208Z,1.93
2018-12-14T07:49:54.340Z,1.93
2018-12-14T07:52:26.500Z,1.76
2018-12-14T07:54:56.775Z,1.90
2018-12-14T07:57:29.938Z,1.89
2018-12-14T08:00:02.767Z,1.99
2018-12-14T08:02:37.569Z,1.94
2018-12-14T08:05:09.703Z,1.99
2018-12-14T08:07:40.018Z,2.00
2018-12-14T08:10:12.848Z,1.93
2018-12-14T08:12:46.292Z,2.02
2018-12-14T08:15:20.508Z,2.10
2018-12-14T08:17:53.540Z,2.09
2018-12-14T08:20:26.291Z,2.15
2018-12-14T08:22:59.110Z,2.16
2018-12-14T08:25:31.807Z,2.12
2018-12-14T08:28:04.390Z,2.05
2018-12-14T08:30:37.599Z,2.07
2018-12-14T08:33:09.517Z,2.06
2018-12-14T08:35:41.934Z,2.05
2018-12-14T08:38:15.209Z,2.11
2018-12-14T08:40:47.886Z,2.18
2018-12-14T08:43:19.560Z,2.18
2018-12-14T08:45:52.110Z,2.09
2018-12-14T08:48:24.528Z,2.24
2018-12-14T08:50:57.965Z,2.40
2018-12-14T08:53:37.582Z,2.33
2018-12-14T08:56:14.649Z,2.23
2018-12-14T08:58:48.077Z,2.32
2018-12-14T09:01:21.432Z,2.31
2018-12-14T09:03:55.259Z,2.24
2018-12-14T09:06:27.351Z,2.20
2018-12-14T09:09:04.813Z,2.20
2018-12-14T09:11:37.007Z,2.20
2018-12-14T09:14:12.608Z,2.22
2018-12-14T09:19:16.870Z,2.25
2018-12-14T09:21:49.701Z,2.41
2018-12-14T09:24:21.920Z,2.42
2018-12-14T09:26:54.603Z,2.40
2018-12-14T09:29:28.030Z,2.39
2018-12-14T09:32:00.504Z,2.40
2018-12-14T09:34:33.085Z,2.28
2018-12-14T09:37:05.011Z,2.41
2018-12-14T09:39:37.158Z,2.44
2018-12-14T09:42:09.585Z,2.42
2018-12-14T09:44:41.693Z,2.35
2018-12-14T09:47:14.099Z,2.31
2018-12-14T09:49:49.559Z,2.41
2018-12-14T09:52:21.678Z,2.42
2018-12-14T09:54:53.743Z,2.33
2018-12-14T09:57:23.983Z,2.38
2018-12-14T09:59:57.229Z,2.33
2018-12-14T10:02:29.813Z,2.33
2018-12-14T10:05:02.187Z,2.36
2018-12-14T10:07:34.525Z,2.31
2018-12-14T10:10:09.017Z,2.29
2018-12-14T10:12:41.022Z,2.27
2018-12-14T10:15:13.158Z,2.25
2018-12-14T10:17:48.340Z,2.25
2018-12-14T10:20:20.312Z,2.16
2018-12-14T10:22:52.178Z,2.31
2018-12-14T10:25:23.989Z,2.30
2018-12-14T10:27:56.476Z,2.30
2018-12-14T10:30:28.428Z,2.27
2018-12-14T10:33:04.142Z,2.34
2018-12-14T10:35:36.005Z,2.55
2018-12-14T10:38:08.655Z,2.65
2018-12-14T10:40:40.427Z,2.37
2018-12-14T10:43:12.509Z,2.44
2018-12-14T10:45:49.920Z,2.32
2018-12-14T10:48:23.427Z,2.50
2018-12-14T10:50:56.024Z,2.56
2018-12-14T10:53:28.034Z,2.58
2018-12-14T10:56:02.041Z,2.32
2018-12-14T10:58:37.672Z,2.61
2018-12-14T11:01:14.673Z,2.61
2018-12-14T11:03:48.419Z,2.55
2018-12-14T11:06:23.041Z,2.44
2018-12-14T11:23:30.761Z,2.51
2018-12-14T11:26:05.278Z,2.63
2018-12-14T11:28:36.929Z,2.43
2018-12-14T11:31:09.157Z,2.46
2018-12-14T11:33:41.350Z,2.49
2018-12-14T11:36:13.950Z,2.47
2018-12-14T11:38:45.687Z,2.49
2018-12-14T11:41:18.611Z,2.60
2018-12-14T11:43:49.263Z,2.66
2018-12-14T11:46:20.993Z,2.89
2018-12-14T11:48:51.272Z,2.76
2018-12-14T11:51:24.444Z,2.77
2018-12-14T11:53:56.845Z,2.68
2018-12-14T11:56:28.933Z,2.75
2018-12-14T11:59:01.212Z,2.74
2018-12-14T12:01:33.604Z,2.74
2018-12-14T12:04:05.804Z,2.72
2018-12-14T12:06:38.376Z,2.48
2018-12-14T12:09:12.046Z,2.72
2018-12-14T12:11:44.348Z,2.70
2018-12-14T12:14:16.671Z,2.62
2018-12-14T12:16:48.877Z,2.70
2018-12-14T12:19:21.044Z,2.72
2018-12-14T12:21:52.990Z,2.74
2018-12-14T12:24:25.348Z,2.67
2018-12-14T12:26:57.159Z,2.59
2018-12-14T12:29:32.000Z,2.78
2018-12-14T12:32:03.821Z,2.74
2018-12-14T12:34:38.405Z,2.65
2018-12-14T12:37:10.118Z,2.67
2018-12-14T12:39:49.688Z,2.71
2018-12-14T12:42:22.094Z,2.79
2018-12-14T12:44:56.087Z,2.69
2018-12-14T12:47:28.500Z,2.63
2018-12-14T12:49:59.703Z,2.62
2018-12-14T12:52:31.959Z,2.62
2018-12-14T12:55:02.392Z,2.58
2018-12-14T12:57:36.969Z,2.60
2018-12-14T13:00:10.164Z,2.63
2018-12-14T13:02:42.531Z,2.62
2018-12-14T13:05:14.268Z,2.61
2018-12-14T13:07:46.507Z,2.71
2018-12-14T13:10:18.627Z,2.58
2018-12-14T13:12:50.723Z,2.70
2018-12-14T13:15:22.943Z,2.68
2018-12-14T13:17:55.421Z,2.62
2018-12-14T13:20:27.382Z,2.57
2018-12-14T13:22:59.397Z,2.63
2018-12-14T13:28:01.262Z,2.63
2018-12-14T13:30:33.863Z,2.49
2018-12-14T13:33:04.855Z,2.47
2018-12-14T13:35:36.763Z,2.47
2018-12-14T13:38:07.184Z,2.46
2018-12-14T13:40:39.257Z,2.23
2018-12-14T13:43:11.494Z,2.27
2018-12-14T13:45:43.918Z,2.36
2018-12-14T13:48:14.197Z,2.41
2018-12-14T13:50:46.321Z,2.48
2018-12-14T13:53:18.408Z,2.48
2018-12-14T13:55:50.762Z,2.42
2018-12-14T13:58:22.917Z,2.41
2018-12-14T14:00:54.522Z,2.40
2018-12-14T14:03:27.003Z,2.34
2018-12-14T14:05:59.596Z,2.36
2018-12-14T14:08:31.934Z,2.34
2018-12-14T14:11:03.736Z,2.17
2018-12-14T14:13:35.909Z,2.34
2018-12-14T14:16:08.323Z,2.34
2018-12-14T14:18:42.873Z,2.07
2018-12-14T14:21:15.156Z,2.23
2018-12-14T14:23:45.169Z,2.30
2018-12-14T14:31:15.538Z,2.23
2018-12-14T14:33:47.662Z,2.14
2018-12-14T14:36:22.309Z,2.08
2018-12-14T14:38:54.891Z,1.97
2018-12-14T14:41:26.999Z,2.04
2018-12-14T14:43:59.714Z,2.05
2018-12-14T14:46:31.740Z,2.00
2018-12-14T14:49:04.308Z,2.03
2018-12-14T14:51:37.787Z,1.92
2018-12-14T14:54:07.920Z,2.05
2018-12-14T14:56:40.102Z,2.05
2018-12-14T14:59:12.626Z,2.02
2018-12-14T15:01:44.757Z,2.06
2018-12-14T15:04:16.804Z,2.06
2018-12-14T15:06:50.071Z,2.07
2018-12-14T15:09:22.093Z,2.05
2018-12-14T15:11:54.065Z,2.11
2018-12-14T15:14:26.130Z,2.02
2018-12-14T15:16:58.757Z,2.05
2018-12-14T15:19:30.919Z,2.05
2018-12-14T15:22:04.661Z,2.05
2018-12-14T15:24:37.147Z,2.00
2018-12-14T15:27:09.018Z,2.01
2018-12-14T15:32:12.864Z,1.92
2018-12-14T15:34:45.875Z,1.95
2018-12-14T15:37:18.349Z,1.89
2018-12-14T15:39:50.357Z,1.88
2018-12-14T15:42:23.603Z,1.99
2018-12-14T15:44:57.652Z,1.90
2018-12-14T15:47:31.615Z,2.00
2018-12-14T15:50:04.577Z,2.01
2018-12-14T15:52:44.748Z,1.75
2018-12-14T15:55:17.700Z,1.70
2018-12-14T15:57:50.017Z,1.86
2018-12-14T16:00:22.514Z,1.82
2018-12-14T16:02:55.871Z,1.90
2018-12-14T16:05:29.251Z,1.84
2018-12-14T16:08:01.595Z,1.69
2018-12-14T16:10:33.894Z,1.81
2018-12-14T16:13:06.304Z,1.85
2018-12-14T16:15:38.348Z,1.86
2018-12-14T16:18:12.816Z,1.86
2018-12-14T16:20:45.674Z,1.73
2018-12-14T16:23:17.894Z,1.79
2018-12-14T16:25:50.592Z,1.55
2018-12-14T16:28:21.300Z,1.68
2018-12-14T16:30:54.251Z,1.79
2018-12-14T16:33:26.647Z,1.76
2018-12-14T16:35:58.837Z,1.69
2018-12-14T16:38:30.912Z,1.62
2018-12-14T16:41:03.291Z,1.74
2018-12-14T16:43:35.559Z,1.74
2018-12-14T16:46:07.741Z,1.76
2018-12-14T16:48:39.832Z,1.76
2018-12-14T16:51:10.027Z,1.72
2018-12-14T16:53:47.560Z,1.64
2018-12-14T16:56:18.153Z,1.67
2018-12-14T16:58:50.111Z,1.76
2018-12-14T17:01:25.509Z,1.68
2018-12-14T17:03:57.760Z,1.68
2018-12-14T17:06:28.232Z,1.62
2018-12-14T17:09:00.279Z,1.62
2018-12-14T17:11:36.903Z,1.67
2018-12-14T17:14:08.746Z,1.65
2018-12-14T17:16:38.772Z,1.69
2018-12-14T17:19:09.084Z,1.82
2018-12-14T17:21:41.669Z,1.85
2018-12-14T17:24:11.957Z,1.77
2018-12-14T17:26:43.744Z,1.81
2018-12-14T17:29:14.075Z,1.86
2018-12-14T17:31:48.601Z,1.81
2018-12-14T17:34:20.427Z,1.78
2018-12-14T17:36:52.705Z,1.76
2018-12-14T17:39:24.891Z,1.71
2018-12-14T17:41:57.187Z,1.77
2018-12-14T17:44:29.835Z,1.75
2018-12-14T17:47:12.451Z,1.79
2018-12-14T17:49:43.745Z,1.74
2018-12-14T17:52:18.156Z,1.84
2018-12-14T17:54:51.698Z,1.71
2018-12-14T17:57:23.888Z,1.86
2018-12-14T17:59:56.650Z,1.72
2018-12-14T18:02:29.825Z,1.71
2018-12-14T18:05:03.927Z,1.75
2018-12-14T18:07:36.652Z,1.77
2018-12-14T18:10:08.787Z,1.82
2018-12-14T18:12:40.790Z,1.78
2018-12-14T18:15:13.569Z,1.78
2018-12-14T18:17:45.257Z,1.74
2018-12-14T18:20:18.170Z,1.72
2018-12-14T18:22:50.800Z,1.66
2018-12-14T18:25:23.608Z,1.65
2018-12-14T18:27:55.749Z,1.63
2018-12-14T18:30:28.418Z,1.64
2018-12-14T18:38:04.671Z,1.71
2018-12-14T18:40:36.905Z,1.65
2018-12-14T18:43:07.460Z,1.63
2018-12-14T18:45:39.191Z,1.62
2018-12-14T18:48:12.591Z,1.59
2018-12-14T18:50:44.763Z,1.68
2018-12-14T18:53:16.990Z,1.72
2018-12-14T18:55:49.201Z,1.71
2018-12-14T18:58:21.420Z,1.71
2018-12-14T19:00:56.049Z,1.73
2018-12-14T19:06:21.097Z,1.61
2018-12-14T19:08:53.345Z,1.67
2018-12-14T19:11:25.727Z,1.65
2018-12-14T19:13:57.592Z,1.65
2018-12-14T19:16:30.059Z,1.76
2018-12-14T19:19:02.065Z,1.70
2018-12-14T19:21:33.932Z,1.76
2018-12-14T19:24:06.390Z,1.74
2018-12-14T19:26:38.306Z,1.77
2018-12-14T19:29:11.074Z,1.71
2018-12-14T19:31:43.430Z,1.73
2018-12-14T19:34:13.811Z,1.77
2018-12-14T19:36:45.807Z,1.78
2018-12-14T19:39:18.391Z,1.74
2018-12-14T19:41:50.157Z,1.75
2018-12-14T19:44:20.616Z,1.75
2018-12-14T19:46:52.771Z,1.71
2018-12-14T19:49:22.736Z,1.64
2018-12-14T19:51:55.173Z,1.71
2018-12-14T19:54:27.410Z,1.63
2018-12-14T19:56:59.438Z,1.76
2018-12-14T19:59:31.658Z,1.78
2018-12-14T20:02:04.208Z,1.76
2018-12-14T20:04:36.067Z,1.64
2018-12-14T20:07:10.391Z,1.83
2018-12-14T20:09:44.808Z,1.82
2018-12-14T20:12:19.370Z,1.89
2018-12-14T20:14:51.477Z,1.70
2018-12-14T20:17:26.523Z,1.80
2018-12-14T20:19:59.686Z,1.79
2018-12-14T20:22:32.590Z,1.80
2018-12-14T20:25:06.572Z,1.55
2018-12-14T20:27:39.244Z,1.64
2018-12-14T20:30:12.738Z,1.61
2018-12-14T20:32:46.182Z,1.78
2018-12-14T20:35:19.577Z,1.72
2018-12-14T20:37:52.807Z,1.43
2018-12-14T20:40:30.711Z,1.59
2018-12-14T20:43:03.241Z,1.68
2018-12-14T20:45:43.867Z,1.65
2018-12-14T20:48:17.430Z,1.77
2018-12-14T20:50:49.787Z,1.58
2018-12-14T20:53:22.228Z,1.52
2018-12-14T20:55:55.271Z,1.53
2018-12-14T20:58:27.574Z,1.53
2018-12-14T21:01:00.906Z,1.57
2018-12-14T21:03:33.381Z,1.63
2018-12-14T21:06:09.343Z,1.66
2018-12-14T21:08:42.919Z,1.63
2018-12-14T21:11:18.446Z,1.63
2018-12-14T21:13:50.541Z,1.81
2018-12-14T21:16:25.966Z,1.70
2018-12-14T21:18:56.801Z,1.67
2018-12-14T21:21:30.087Z,1.75
2018-12-14T21:24:02.309Z,1.72
2018-12-14T21:26:39.622Z,1.66
2018-12-14T21:38:06.822Z,1.58
2018-12-14T21:40:38.835Z,1.69
2018-12-14T21:43:11.377Z,1.61
2018-12-14T21:45:43.124Z,1.71
2018-12-14T21:48:15.564Z,1.60
2018-12-14T21:50:48.464Z,1.71
2018-12-14T21:53:20.576Z,1.64
2018-12-14T21:55:53.005Z,1.63
2018-12-14T21:58:24.966Z,1.68
2018-12-14T22:01:01.708Z,1.87
2018-12-14T22:03:34.342Z,1.83
2018-12-14T22:06:06.531Z,1.81
2018-12-14T22:08:36.620Z,1.80
2018-12-14T22:11:09.002Z,1.78
2018-12-14T22:13:41.809Z,1.72
2018-12-14T22:16:13.428Z,1.68
2018-12-14T22:18:45.699Z,1.83
2018-12-14T22:21:17.974Z,1.90
2018-12-14T22:23:50.193Z,1.89
2018-12-14T22:26:23.137Z,1.81
2018-12-14T22:28:55.211Z,1.85
2018-12-14T22:31:27.904Z,1.81
2018-12-14T22:34:00.994Z,1.80
2018-12-14T22:36:34.441Z,1.77
2018-12-14T22:39:07.543Z,1.75
2018-12-14T22:41:40.751Z,1.79
2018-12-14T22:44:11.831Z,1.74
2018-12-14T22:46:45.577Z,1.80
2018-12-14T22:49:16.738Z,1.78
2018-12-14T22:51:49.317Z,1.77
2018-12-14T22:54:32.137Z,1.67
2018-12-14T22:57:04.713Z,1.76
2018-12-14T22:59:37.355Z,1.76
2018-12-14T23:02:09.483Z,1.59
2018-12-14T23:04:41.783Z,1.79
2018-12-14T23:07:13.669Z,1.82
2018-12-14T23:09:45.956Z,1.86
2018-12-14T23:12:19.138Z,1.81
2018-12-14T23:14:52.649Z,1.79
2018-12-14T23:17:26.976Z,1.82
2018-12-14T23:19:58.919Z,1.78
2018-12-14T23:22:31.524Z,1.84
2018-12-14T23:25:03.260Z,1.77
2018-12-14T23:27:35.871Z,1.79
2018-12-14T23:30:10.869Z,1.75
2018-12-14T23:32:42.869Z,1.65
2018-12-14T23:35:15.377Z,1.76
2018-12-14T23:37:47.999Z,1.73
2018-12-14T23:40:21.034Z,1.74
2018-12-14T23:45:24.120Z,1.51
2018-12-14T23:47:56.067Z,1.67
2018-12-14T23:50:28.476Z,1.52
2018-12-14T23:53:00.967Z,1.55
2018-12-14T23:55:43.077Z,1.60
2018-12-14T23:58:15.565Z,1.49
